Airfield :
LOGIN :

Register | Disclaimer

   EN    FR    IT 

 










Legend :    VFR   Marginal VFR   IFR   Intensive IFR   Very Intensive IFR
Visi :
Ceiling :
>= 8 km
>= 3000ft
5 to 8 km
1000 to 3000 ft
1500m to 5 km
500 to 1000 ft
800 to 1500m
200 to 500 ft
< 800m
< 200 ft
Symbols :   Thunderstorms  Fog  Heavy snow  Heavy precipitations  Wind > 20 kt
SIGMETs :     Misc.  Thunderstorms  Icing  Turbulence  Mountain Waves  Volcanic Ashes







- Airport Elevation : 1830 ft


EBLB - Butgenbach Elsenborn

CURRENT METAR :
  • 160155Z AUTO VRB01KT 7000 BR OVC002/// 07/07 Q1020 AMB

EXPIRED METARs :
  • 160133Z AUTO VRB01KT 0300 FG OVC001/// 08/08 Q1020 RED
  • 160125Z AUTO VRB01KT 3000 FG OVC002/// 08/08 Q1020 AMB
  • 160055Z AUTO VRB01KT 1600 BR BKN001/// 08/08 Q1020 RED
  • 160051Z AUTO 00000KT 9999 BKN001/// 08/08 Q1020 RED
  • 160045Z AUTO 00000KT 9999 OVC002/// 08/08 Q1020 AMB
  • 160034Z AUTO VRB01KT 0500 BR OVC002/// 09/09 Q1020 RED
  • 160025Z AUTO VRB01KT 1200 BR OVC002/// 09/09 Q1020 AMB
  • 160017Z AUTO VRB01KT 3200 BR OVC002/// 09/09 Q1020 AMB
  • 152355Z AUTO VRB01KT 9999 SCT001/// 09/09 Q1020 RED
  • 152346Z AUTO 00000KT 9999 BKN001/// 10/09 Q1020 RED
  • 152325Z AUTO 00000KT 9999 OVC002/// 10/09 Q1021 AMB
  • 152255Z AUTO VRB01KT 9999 SCT001/// 10/10 Q1021 RED

Expired Forecast.
No reported NOTAMs for that airfield.



MET'MAP, your aeronautical weather chart ! - Copyright ORBIFLY December 2007 - Disclaimer

ORBIFLY MET'MAP TEAM :

Programming & Development : Alexandra Zaïnal
Concept & Development : Baudouin d'Aumeries
Co-Development & Prog : Marc-Olivier Méhu
Technical & hardware support : Manuel Goepfert

Contact : metmap@orbifly.com




SOURCES & CREDITS :

   NOAA